createdAt,value
2018-01-03T00:00:08.524Z,0.80
2018-01-03T00:02:36.796Z,1.03
2018-01-03T00:05:06.793Z,0.97
2018-01-03T00:07:36.018Z,0.77
2018-01-03T00:10:06.164Z,1.13
2018-01-03T00:12:35.355Z,1.30
2018-01-03T00:15:07.061Z,1.23
2018-01-03T00:17:35.360Z,0.70
2018-01-03T00:20:07.363Z,0.40
2018-01-03T00:22:35.663Z,0.50
2018-01-03T00:25:07.751Z,0.50
2018-01-03T00:27:36.039Z,0.83
2018-01-03T00:30:08.099Z,0.83
2018-01-03T00:32:36.344Z,0.67
2018-01-03T00:35:07.669Z,0.40
2018-01-03T00:37:36.785Z,1.03
2018-01-03T00:40:06.401Z,0.47
2018-01-03T00:42:34.677Z,2.10
2018-01-03T00:45:06.255Z,0.50
2018-01-03T00:47:34.528Z,0.53
2018-01-03T00:50:07.808Z,0.93
2018-01-03T00:52:36.379Z,1.10
2018-01-03T00:55:06.492Z,0.70
2018-01-03T00:57:34.765Z,0.57
2018-01-03T01:00:06.700Z,1.77
2018-01-03T01:02:34.957Z,0.50
2018-01-03T01:05:06.869Z,1.50
2018-01-03T01:07:35.145Z,0.40
2018-01-03T01:10:06.476Z,0.60
2018-01-03T01:12:34.744Z,0.50
2018-01-03T01:15:07.797Z,0.73
2018-01-03T01:17:36.059Z,0.80
2018-01-03T01:20:08.079Z,0.47
2018-01-03T01:22:36.382Z,1.00
2018-01-03T01:25:09.511Z,0.60
2018-01-03T01:27:37.805Z,1.87
2018-01-03T01:30:06.642Z,0.63
2018-01-03T01:32:35.082Z,1.30
2018-01-03T01:35:06.221Z,1.50
2018-01-03T01:37:34.513Z,1.27
2018-01-03T01:40:06.131Z,0.50
2018-01-03T01:42:34.580Z,0.90
2018-01-03T01:45:07.768Z,1.27
2018-01-03T01:47:36.084Z,1.53
2018-01-03T01:50:07.780Z,1.00
2018-01-03T01:52:36.428Z,0.73
2018-01-03T01:55:06.412Z,1.47
2018-01-03T01:57:34.669Z,1.53
2018-01-03T02:00:09.804Z,2.53
2018-01-03T02:02:38.088Z,1.53
2018-01-03T02:05:06.398Z,1.43
2018-01-03T02:07:34.826Z,1.33
2018-01-03T02:10:06.999Z,1.53
2018-01-03T02:12:35.353Z,2.70
2018-01-03T02:15:07.160Z,2.33
2018-01-03T02:17:35.704Z,2.97
2018-01-03T02:20:07.465Z,3.13
2018-01-03T02:22:35.749Z,2.27
2018-01-03T02:25:06.987Z,3.07
2018-01-03T02:27:35.574Z,2.70
2018-01-03T02:30:06.384Z,2.00
2018-01-03T02:32:35.089Z,1.43
2018-01-03T02:35:06.647Z,2.53
2018-01-03T02:37:34.924Z,2.73
2018-01-03T02:40:06.318Z,1.13
2018-01-03T02:42:34.602Z,1.47
2018-01-03T02:45:09.849Z,1.73
2018-01-03T02:47:38.153Z,1.03
2018-01-03T02:50:06.443Z,1.00
2018-01-03T02:52:34.740Z,2.03
2018-01-03T02:55:09.859Z,2.40
2018-01-03T02:57:38.181Z,1.07
2018-01-03T03:00:06.428Z,1.10
2018-01-03T03:02:34.692Z,1.07
2018-01-03T03:05:09.722Z,2.37
2018-01-03T03:07:37.988Z,1.03
2018-01-03T03:10:06.445Z,1.37
2018-01-03T03:12:34.704Z,1.07
2018-01-03T03:15:06.269Z,1.33
2018-01-03T03:17:34.686Z,1.27
2018-01-03T03:20:06.300Z,1.70
2018-01-03T03:22:34.583Z,0.80
2018-01-03T03:25:06.031Z,0.60
2018-01-03T03:27:34.307Z,0.57
2018-01-03T03:30:06.271Z,1.00
2018-01-03T03:32:34.588Z,0.63
2018-01-03T03:35:07.112Z,1.07
2018-01-03T03:37:35.392Z,2.70
2018-01-03T03:40:07.239Z,0.97
2018-01-03T03:42:35.537Z,0.70
2018-01-03T03:45:06.373Z,0.63
2018-01-03T03:47:34.666Z,1.10
2018-01-03T03:50:06.077Z,0.50
2018-01-03T03:52:34.355Z,0.73
2018-01-03T03:55:09.371Z,0.63
2018-01-03T03:57:37.933Z,0.57
2018-01-03T04:00:06.927Z,1.00
2018-01-03T04:02:36.069Z,0.30
2018-01-03T04:05:07.484Z,0.77
2018-01-03T04:07:35.747Z,0.30
2018-01-03T04:10:07.077Z,0.57
2018-01-03T04:12:35.361Z,0.47
2018-01-03T04:15:06.600Z,0.70
2018-01-03T04:17:35.384Z,0.70
2018-01-03T04:20:06.482Z,0.33
2018-01-03T04:22:35.793Z,0.23
2018-01-03T04:25:07.751Z,0.73
2018-01-03T04:27:36.028Z,0.57
2018-01-03T04:30:07.551Z,1.23
2018-01-03T04:32:36.641Z,1.33
2018-01-03T04:35:06.913Z,1.73
2018-01-03T04:37:35.395Z,1.10
2018-01-03T04:40:06.715Z,0.37
2018-01-03T04:42:35.298Z,2.60
2018-01-03T04:45:06.484Z,0.57
2018-01-03T04:47:34.759Z,0.80
2018-01-03T04:50:06.283Z,1.77
2018-01-03T04:52:34.943Z,2.80
2018-01-03T04:55:09.936Z,4.10
2018-01-03T04:57:38.204Z,1.50
2018-01-03T05:00:07.404Z,3.10
2018-01-03T05:02:35.673Z,3.07
2018-01-03T05:05:07.339Z,3.53
2018-01-03T05:07:35.600Z,2.10
2018-01-03T05:10:07.641Z,5.37
2018-01-03T05:12:35.912Z,2.50
2018-01-03T05:15:07.325Z,3.90
2018-01-03T05:17:35.600Z,1.23
2018-01-03T05:20:06.463Z,2.00
2018-01-03T05:22:35.048Z,1.40
2018-01-03T05:25:09.004Z,1.30
2018-01-03T05:27:37.304Z,3.17
2018-01-03T05:30:07.263Z,3.10
2018-01-03T05:32:35.500Z,2.00
2018-01-03T05:35:06.534Z,1.67
2018-01-03T05:37:34.836Z,1.80
2018-01-03T05:40:06.425Z,1.17
2018-01-03T05:42:34.733Z,1.93
2018-01-03T05:45:05.956Z,2.27
2018-01-03T05:47:35.025Z,4.50
2018-01-03T05:50:06.511Z,3.13
2018-01-03T05:52:34.795Z,2.93
2018-01-03T05:55:06.548Z,2.90
2018-01-03T05:57:35.887Z,2.33
2018-01-03T06:00:07.395Z,3.23
2018-01-03T06:02:35.666Z,5.80
2018-01-03T06:05:05.742Z,4.43
2018-01-03T06:07:34.282Z,4.73
2018-01-03T06:10:05.615Z,5.17
2018-01-03T06:12:33.887Z,3.70
2018-01-03T06:15:09.036Z,4.10
2018-01-03T06:17:37.464Z,4.80
2018-01-03T06:20:05.749Z,4.80
2018-01-03T06:22:34.300Z,6.23
2018-01-03T06:25:05.927Z,5.27
2018-01-03T06:27:34.312Z,5.37
2018-01-03T06:30:06.338Z,6.23
2018-01-03T06:32:34.662Z,5.77
2018-01-03T06:35:06.756Z,6.23
2018-01-03T06:37:35.353Z,4.67
2018-01-03T06:40:07.467Z,6.30
2018-01-03T06:42:35.752Z,9.07
2018-01-03T06:45:05.745Z,7.73
2018-01-03T06:47:34.051Z,7.30
2018-01-03T06:50:05.680Z,6.70
2018-01-03T06:52:34.011Z,8.00
2018-01-03T06:55:09.080Z,8.63
2018-01-03T06:57:37.500Z,9.97
2018-01-03T07:00:05.775Z,4.83
2018-01-03T07:02:34.028Z,9.50
2018-01-03T07:05:09.053Z,8.53
2018-01-03T07:07:37.337Z,7.70
2018-01-03T07:10:05.614Z,6.43
2018-01-03T07:12:33.892Z,7.60
2018-01-03T07:15:05.552Z,6.87
2018-01-03T07:17:33.846Z,5.13
2018-01-03T07:20:05.308Z,9.90
2018-01-03T07:22:33.576Z,8.80
2018-01-03T07:25:08.628Z,5.33
2018-01-03T07:27:36.888Z,5.87
2018-01-03T07:30:05.969Z,10.57
2018-01-03T07:32:34.256Z,6.57
2018-01-03T07:35:06.383Z,5.70
2018-01-03T07:37:34.668Z,9.23
2018-01-03T07:40:05.802Z,10.77
2018-01-03T07:42:34.088Z,10.83
2018-01-03T07:45:07.900Z,8.87
2018-01-03T07:47:36.206Z,10.10
2018-01-03T07:50:06.022Z,9.43
2018-01-03T07:52:34.321Z,10.93
2018-01-03T07:55:05.608Z,9.23
2018-01-03T07:57:33.887Z,11.70
2018-01-03T08:00:07.793Z,6.93
2018-01-03T08:02:36.082Z,9.57
2018-01-03T08:05:06.073Z,10.07
2018-01-03T08:07:34.351Z,9.93
2018-01-03T08:10:06.594Z,9.73
2018-01-03T08:12:35.064Z,8.00
2018-01-03T08:15:06.353Z,12.33
2018-01-03T08:17:34.671Z,11.73
2018-01-03T08:20:06.792Z,11.73
2018-01-03T08:22:35.092Z,10.63
2018-01-03T08:25:06.895Z,9.13
2018-01-03T08:27:35.229Z,7.70
2018-01-03T08:30:07.304Z,7.97
2018-01-03T08:32:35.563Z,12.73
2018-01-03T08:35:05.723Z,10.90
2018-01-03T08:37:34.004Z,10.10
2018-01-03T08:40:05.720Z,13.93
2018-01-03T08:42:33.990Z,6.70
2018-01-03T08:45:06.250Z,8.57
2018-01-03T08:47:34.529Z,9.37
2018-01-03T08:50:05.944Z,7.10
2018-01-03T08:52:34.296Z,8.23
2018-01-03T08:55:09.478Z,6.50
2018-01-03T08:57:38.085Z,8.00
2018-01-03T09:00:06.340Z,8.27
2018-01-03T09:02:34.629Z,7.30
2018-01-03T09:05:06.412Z,7.93
2018-01-03T09:07:34.696Z,4.37
2018-01-03T09:10:06.710Z,9.40
2018-01-03T09:12:34.996Z,6.90
2018-01-03T09:15:05.797Z,7.53
2018-01-03T09:17:34.183Z,7.23
2018-01-03T09:20:09.215Z,8.67
2018-01-03T09:22:37.498Z,8.77
2018-01-03T09:25:05.804Z,7.23
2018-01-03T09:27:34.112Z,7.57
2018-01-03T09:30:09.121Z,6.97
2018-01-03T09:32:37.477Z,6.07
2018-01-03T09:35:05.756Z,12.17
2018-01-03T09:37:34.020Z,7.27
2018-01-03T09:40:08.080Z,8.33
2018-01-03T09:42:36.331Z,9.23
2018-01-03T09:45:06.341Z,7.43
2018-01-03T09:47:34.818Z,10.23
2018-01-03T09:50:06.833Z,10.40
2018-01-03T09:52:35.368Z,11.70
2018-01-03T09:55:07.504Z,7.90
2018-01-03T09:57:35.775Z,8.83
2018-01-03T10:00:07.120Z,10.27
2018-01-03T10:02:35.571Z,8.20
2018-01-03T10:05:07.705Z,13.00
2018-01-03T10:07:35.974Z,12.47
2018-01-03T10:10:07.284Z,10.63
2018-01-03T10:12:35.708Z,15.23
2018-01-03T10:15:07.454Z,11.93
2018-01-03T10:17:36.024Z,12.20
2018-01-03T10:20:05.955Z,13.73
2018-01-03T10:22:34.257Z,10.07
2018-01-03T10:25:08.459Z,8.40
2018-01-03T10:27:36.825Z,10.43
2018-01-03T10:30:06.241Z,9.47
2018-01-03T10:32:34.725Z,10.33
2018-01-03T10:35:06.812Z,8.63
2018-01-03T10:37:35.413Z,11.43
2018-01-03T10:40:06.913Z,8.30
2018-01-03T10:42:35.199Z,9.13
2018-01-03T10:45:07.089Z,10.57
2018-01-03T10:47:35.380Z,9.60
2018-01-03T10:50:06.796Z,9.50
2018-01-03T10:52:35.467Z,9.40
2018-01-03T10:55:05.922Z,9.50
2018-01-03T10:57:34.451Z,11.13
2018-01-03T11:00:08.383Z,13.57
2018-01-03T11:02:36.688Z,11.83
2018-01-03T11:05:06.211Z,9.43
2018-01-03T11:07:34.494Z,11.63
2018-01-03T11:10:08.636Z,16.47
2018-01-03T11:12:36.882Z,29.70
2018-01-03T11:15:06.224Z,16.37
2018-01-03T11:17:34.507Z,9.20
2018-01-03T11:20:08.438Z,9.97
2018-01-03T11:22:36.721Z,10.97
2018-01-03T11:25:06.143Z,11.80
2018-01-03T11:27:34.426Z,12.47
2018-01-03T11:30:05.949Z,13.57
2018-01-03T11:32:34.227Z,10.67
2018-01-03T11:35:05.744Z,11.87
2018-01-03T11:37:34.556Z,13.00
2018-01-03T11:40:06.463Z,11.83
2018-01-03T11:42:34.758Z,8.90
2018-01-03T11:45:06.475Z,14.00
2018-01-03T11:47:34.768Z,13.50
2018-01-03T11:50:05.849Z,11.67
2018-01-03T11:52:34.764Z,13.67
2018-01-03T11:55:06.546Z,16.43
2018-01-03T11:57:34.856Z,13.10
2018-01-03T12:00:06.054Z,9.80
2018-01-03T12:02:34.587Z,12.67
2018-01-03T12:05:05.898Z,7.90
2018-01-03T12:07:34.314Z,11.17
2018-01-03T12:10:05.850Z,14.40
2018-01-03T12:12:34.144Z,9.93
2018-01-03T12:15:07.531Z,14.57
2018-01-03T12:17:35.786Z,13.17
2018-01-03T12:20:06.996Z,13.23
2018-01-03T12:22:35.286Z,11.97
2018-01-03T12:25:05.954Z,11.60
2018-01-03T12:27:34.234Z,9.93
2018-01-03T12:30:07.576Z,9.93
2018-01-03T12:32:36.822Z,12.37
2018-01-03T12:35:06.523Z,11.23
2018-01-03T12:37:34.799Z,11.03
2018-01-03T12:40:05.992Z,11.40
2018-01-03T12:42:34.260Z,16.33
2018-01-03T12:45:05.773Z,16.23
2018-01-03T12:47:34.066Z,8.90
2018-01-03T12:50:05.409Z,12.40
2018-01-03T12:52:33.701Z,12.50
2018-01-03T12:55:08.516Z,11.13
2018-01-03T12:57:36.771Z,14.30
2018-01-03T13:00:06.876Z,11.23
2018-01-03T13:02:35.210Z,13.50
2018-01-03T13:05:06.455Z,9.17
2018-01-03T13:07:34.745Z,13.27
2018-01-03T13:10:06.254Z,12.87
2018-01-03T13:12:34.556Z,15.77
2018-01-03T13:15:08.485Z,9.53
2018-01-03T13:17:36.756Z,12.13
2018-01-03T13:20:06.546Z,14.43
2018-01-03T13:22:34.837Z,13.13
2018-01-03T13:25:06.992Z,13.90
2018-01-03T13:27:35.285Z,10.23
2018-01-03T13:30:07.201Z,14.90
2018-01-03T13:32:35.744Z,14.67
2018-01-03T13:35:07.764Z,15.87
2018-01-03T13:37:36.107Z,11.83
2018-01-03T13:40:06.277Z,10.67
2018-01-03T13:42:34.560Z,12.43
2018-01-03T13:45:06.669Z,17.73
2018-01-03T13:47:34.949Z,8.80
2018-01-03T13:50:06.325Z,10.37
2018-01-03T13:52:34.597Z,9.27
2018-01-03T13:55:06.689Z,11.33
2018-01-03T13:57:34.964Z,13.50
2018-01-03T14:00:06.043Z,11.13
2018-01-03T14:02:34.346Z,13.27
2018-01-03T14:05:08.201Z,15.97
2018-01-03T14:07:36.457Z,12.83
2018-01-03T14:10:06.352Z,14.57
2018-01-03T14:12:34.627Z,19.93
2018-01-03T14:15:08.696Z,14.83
2018-01-03T14:17:37.724Z,15.67
2018-01-03T14:20:06.070Z,13.97
2018-01-03T14:22:34.356Z,13.83
2018-01-03T14:25:08.016Z,11.33
2018-01-03T14:27:36.286Z,13.23
2018-01-03T14:30:07.917Z,11.97
2018-01-03T14:32:36.213Z,14.53
2018-01-03T14:35:07.648Z,12.60
2018-01-03T14:37:36.046Z,11.97
2018-01-03T14:40:08.320Z,14.17
2018-01-03T14:42:36.611Z,13.80
2018-01-03T14:45:06.610Z,12.50
2018-01-03T14:47:34.902Z,17.33
2018-01-03T14:50:06.229Z,13.80
2018-01-03T14:52:35.441Z,28.10
2018-01-03T14:55:06.864Z,28.17
2018-01-03T14:57:35.136Z,10.93
2018-01-03T15:00:06.295Z,11.30
2018-01-03T15:02:34.664Z,11.13
2018-01-03T15:05:07.688Z,11.80
2018-01-03T15:07:35.980Z,11.03
2018-01-03T15:10:08.063Z,10.53
2018-01-03T15:12:36.647Z,9.20
2018-01-03T15:15:07.967Z,10.00
2018-01-03T15:17:36.512Z,10.77
2018-01-03T15:20:07.846Z,11.90
2018-01-03T15:22:36.352Z,12.77
2018-01-03T15:25:07.814Z,10.70
2018-01-03T15:27:36.428Z,14.97
2018-01-03T15:30:08.304Z,10.50
2018-01-03T15:32:36.588Z,22.83
2018-01-03T15:35:06.291Z,11.93
2018-01-03T15:37:34.868Z,14.87
2018-01-03T15:40:06.952Z,10.83
2018-01-03T15:42:39.037Z,9.87
2018-01-03T15:45:07.330Z,13.37
2018-01-03T15:47:35.760Z,10.30
2018-01-03T15:50:07.085Z,12.67
2018-01-03T15:52:35.364Z,14.60
2018-01-03T15:55:07.414Z,10.37
2018-01-03T15:57:35.709Z,16.33
2018-01-03T16:00:07.412Z,13.83
2018-01-03T16:02:35.731Z,14.90
2018-01-03T16:05:07.071Z,14.50
2018-01-03T16:07:35.608Z,14.17
2018-01-03T16:10:07.021Z,19.03
2018-01-03T16:12:35.316Z,15.80
2018-01-03T16:15:06.940Z,14.37
2018-01-03T16:17:35.216Z,12.77
2018-01-03T16:20:06.769Z,17.83
2018-01-03T16:22:35.081Z,28.70
2018-01-03T16:25:06.419Z,23.27
2018-01-03T16:27:35.128Z,16.13
2018-01-03T16:30:06.987Z,15.53
2018-01-03T16:32:35.438Z,15.77
2018-01-03T16:35:07.360Z,15.93
2018-01-03T16:37:35.635Z,21.47
2018-01-03T16:40:07.252Z,16.93
2018-01-03T16:42:35.529Z,19.60
2018-01-03T16:45:06.536Z,19.87
2018-01-03T16:47:34.845Z,20.13
2018-01-03T16:50:06.629Z,18.57
2018-01-03T16:52:40.413Z,21.30
2018-01-03T16:55:08.729Z,19.80
2018-01-03T16:57:37.032Z,20.80
2018-01-03T17:00:06.284Z,15.93
2018-01-03T17:02:34.778Z,12.00
2018-01-03T17:05:06.872Z,17.73
2018-01-03T17:07:35.352Z,28.10
2018-01-03T17:10:06.560Z,35.90
2018-01-03T17:12:34.877Z,17.37
2018-01-03T17:15:06.309Z,12.70
2018-01-03T17:17:38.293Z,16.47
2018-01-03T17:20:06.864Z,15.03
2018-01-03T17:22:35.794Z,14.97
2018-01-03T17:25:05.764Z,22.47
2018-01-03T17:27:34.081Z,17.17
2018-01-03T17:30:05.572Z,23.53
2018-01-03T17:32:33.872Z,21.93
2018-01-03T17:35:05.330Z,22.13
2018-01-03T17:37:33.886Z,25.53
2018-01-03T17:40:05.132Z,23.37
2018-01-03T17:42:33.413Z,26.63
2018-01-03T17:45:08.183Z,20.87
2018-01-03T17:47:36.448Z,122.23
2018-01-03T17:50:06.117Z,53.70
2018-01-03T17:52:34.961Z,22.07
2018-01-03T17:55:06.911Z,17.93
2018-01-03T17:57:36.192Z,23.13
2018-01-03T18:00:07.615Z,24.97
2018-01-03T18:02:35.891Z,23.40
2018-01-03T18:05:07.476Z,20.87
2018-01-03T18:07:36.233Z,23.13
2018-01-03T18:10:06.090Z,17.17
2018-01-03T18:12:34.395Z,15.73
2018-01-03T18:15:08.596Z,18.30
2018-01-03T18:17:36.893Z,14.60
2018-01-03T18:20:05.998Z,15.20
2018-01-03T18:22:34.276Z,10.30
2018-01-03T18:25:08.261Z,15.90
2018-01-03T18:27:36.533Z,27.27
2018-01-03T18:30:05.987Z,25.33
2018-01-03T18:32:34.780Z,12.03
2018-01-03T18:35:06.704Z,16.53
2018-01-03T18:37:34.976Z,14.30
2018-01-03T18:40:06.458Z,15.87
2018-01-03T18:42:34.724Z,17.37
2018-01-03T18:45:07.430Z,14.67
2018-01-03T18:47:35.708Z,16.63
2018-01-03T18:50:06.055Z,17.67
2018-01-03T18:52:34.312Z,19.70
2018-01-03T18:55:08.714Z,19.30
2018-01-03T18:57:37.405Z,20.70
2018-01-03T19:00:07.347Z,23.50
2018-01-03T19:02:37.277Z,16.30
2018-01-03T19:05:07.299Z,20.17
2018-01-03T19:07:36.015Z,20.47
2018-01-03T19:10:08.859Z,17.87
2018-01-03T19:12:37.550Z,16.97
2018-01-03T19:15:06.935Z,19.70
2018-01-03T19:17:35.274Z,21.53
2018-01-03T19:20:06.126Z,20.60
2018-01-03T19:22:34.421Z,25.37
2018-01-03T19:25:08.395Z,20.70
2018-01-03T19:27:36.725Z,18.87
2018-01-03T19:30:06.604Z,22.20
2018-01-03T19:32:35.168Z,19.30
2018-01-03T19:35:07.745Z,20.70
2018-01-03T19:37:36.687Z,18.10
2018-01-03T19:40:06.411Z,23.47
2018-01-03T19:42:34.704Z,22.50
2018-01-03T19:45:05.911Z,20.23
2018-01-03T19:47:34.556Z,25.87
2018-01-03T19:50:06.680Z,19.13
2018-01-03T19:52:34.988Z,22.07
2018-01-03T19:55:05.789Z,19.37
2018-01-03T19:57:34.071Z,20.80
2018-01-03T20:00:05.646Z,18.67
2018-01-03T20:02:34.410Z,22.07
2018-01-03T20:05:06.585Z,20.03
2018-01-03T20:07:34.915Z,25.17
2018-01-03T20:10:06.870Z,17.27
2018-01-03T20:12:35.594Z,20.77
2018-01-03T20:15:07.646Z,21.13
2018-01-03T20:17:35.932Z,22.73
2018-01-03T20:20:06.157Z,21.27
2018-01-03T20:22:34.518Z,23.60
2018-01-03T20:25:08.939Z,25.63
2018-01-03T20:27:37.347Z,21.87
2018-01-03T20:30:06.345Z,15.37
2018-01-03T20:32:34.647Z,16.87
2018-01-03T20:35:05.958Z,22.97
2018-01-03T20:37:34.240Z,23.73
2018-01-03T20:40:05.716Z,18.60
2018-01-03T20:42:34.034Z,24.10
2018-01-03T20:45:05.820Z,19.97
2018-01-03T20:47:34.085Z,20.17
2018-01-03T20:50:05.512Z,22.60
2018-01-03T20:52:33.814Z,19.47
2018-01-03T20:55:07.236Z,14.93
2018-01-03T20:57:35.532Z,20.50
2018-01-03T21:00:07.129Z,18.17
2018-01-03T21:02:35.452Z,19.53
2018-01-03T21:05:06.675Z,14.87
2018-01-03T21:07:35.376Z,20.17
2018-01-03T21:10:05.864Z,20.87
2018-01-03T21:12:34.142Z,21.77
2018-01-03T21:15:09.316Z,27.43
2018-01-03T21:17:37.656Z,22.07
2018-01-03T21:20:05.908Z,25.63
2018-01-03T21:22:34.226Z,23.47
2018-01-03T21:25:05.747Z,23.97
2018-01-03T21:27:34.090Z,20.80
2018-01-03T21:33:13.755Z,22.50
2018-01-03T21:44:39.292Z,23.80
2018-01-03T22:02:11.959Z,23.47
2018-01-03T22:16:39.176Z,23.83
2018-01-03T22:22:28.920Z,25.27
2018-01-03T22:34:14.418Z,20.13
2018-01-03T22:54:47.195Z,19.27
2018-01-03T23:12:07.159Z,23.67
2018-01-03T23:23:44.017Z,17.77
2018-01-03T23:26:12.327Z,18.50
2018-01-03T23:28:40.603Z,21.20
2018-01-03T23:31:08.883Z,21.07
2018-01-03T23:33:37.456Z,21.27
2018-01-03T23:36:06.056Z,25.33
2018-01-03T23:38:34.328Z,24.23
2018-01-03T23:41:02.620Z,23.87
2018-01-03T23:43:31.196Z,20.70
2018-01-03T23:45:59.467Z,20.60
2018-01-03T23:48:28.049Z,23.07
2018-01-03T23:50:56.292Z,20.13
2018-01-03T23:53:24.592Z,22.47
2018-01-03T23:55:52.888Z,22.70
2018-01-03T23:58:21.787Z,21.97
